sensor_id;sensor_type;location;lat;lon;timestamp;pressure;altitude;pressure_sealevel;temperature;humidity
61906;BME280;47863;55.766;37.672;2023-04-06T00:01:12;100566.53;;;5.01;63.42
61906;BME280;47863;55.766;37.672;2023-04-06T00:03:38;100580.03;;;5.10;62.91
61906;BME280;47863;55.766;37.672;2023-04-06T00:06:04;100587.56;;;5.16;62.94
61906;BME280;47863;55.766;37.672;2023-04-06T00:08:29;100567.38;;;5.01;63.41
61906;BME280;47863;55.766;37.672;2023-04-06T00:10:55;100594.03;;;5.12;63.10
61906;BME280;47863;55.766;37.672;2023-04-06T00:13:21;100592.22;;;5.13;62.71
61906;BME280;47863;55.766;37.672;2023-04-06T00:15:46;100583.94;;;5.05;62.90
61906;BME280;47863;55.766;37.672;2023-04-06T00:18:12;100577.91;;;5.03;62.80
61906;BME280;47863;55.766;37.672;2023-04-06T00:20:38;100587.25;;;5.08;62.34
61906;BME280;47863;55.766;37.672;2023-04-06T00:23:03;100591.50;;;5.11;62.49
61906;BME280;47863;55.766;37.672;2023-04-06T00:25:29;100595.00;;;5.11;62.68
61906;BME280;47863;55.766;37.672;2023-04-06T00:27:55;100575.25;;;5.03;62.36
61906;BME280;47863;55.766;37.672;2023-04-06T00:30:21;100565.16;;;4.95;62.46
61906;BME280;47863;55.766;37.672;2023-04-06T00:32:46;100555.81;;;4.89;62.01
61906;BME280;47863;55.766;37.672;2023-04-06T00:35:12;100600.19;;;5.13;62.02
61906;BME280;47863;55.766;37.672;2023-04-06T00:37:37;100584.59;;;5.08;61.88
61906;BME280;47863;55.766;37.672;2023-04-06T00:40:03;100580.13;;;5.09;62.08
61906;BME280;47863;55.766;37.672;2023-04-06T00:42:29;100560.06;;;4.92;61.99
61906;BME280;47863;55.766;37.672;2023-04-06T00:45:00;100596.16;;;5.07;62.04
61906;BME280;47863;55.766;37.672;2023-04-06T00:47:26;100547.84;;;4.76;61.76
61906;BME280;47863;55.766;37.672;2023-04-06T00:49:53;100562.38;;;4.84;61.79
61906;BME280;47863;55.766;37.672;2023-04-06T00:52:19;100592.34;;;4.99;62.53
61906;BME280;47863;55.766;37.672;2023-04-06T00:54:45;100588.94;;;4.96;61.93
61906;BME280;47863;55.766;37.672;2023-04-06T00:57:14;100588.41;;;4.91;62.54
61906;BME280;47863;55.766;37.672;2023-04-06T00:59:40;100594.03;;;4.87;62.39
61906;BME280;47863;55.766;37.672;2023-04-06T01:02:06;100565.03;;;4.71;62.10
61906;BME280;47863;55.766;37.672;2023-04-06T01:04:32;100589.78;;;4.84;61.64
61906;BME280;47863;55.766;37.672;2023-04-06T01:06:58;100596.13;;;4.82;61.90
61906;BME280;47863;55.766;37.672;2023-04-06T01:09:23;100599.34;;;4.74;62.14
61906;BME280;47863;55.766;37.672;2023-04-06T01:11:49;100576.81;;;4.67;62.23
61906;BME280;47863;55.766;37.672;2023-04-06T01:14:15;100577.00;;;4.64;61.85
61906;BME280;47863;55.766;37.672;2023-04-06T01:16:41;100586.69;;;4.65;61.84
61906;BME280;47863;55.766;37.672;2023-04-06T01:19:11;100578.06;;;4.61;61.78
61906;BME280;47863;55.766;37.672;2023-04-06T01:21:37;100572.22;;;4.56;61.96
61906;BME280;47863;55.766;37.672;2023-04-06T01:24:04;100573.09;;;4.56;62.13
61906;BME280;47863;55.766;37.672;2023-04-06T01:26:30;100582.63;;;4.59;62.07
61906;BME280;47863;55.766;37.672;2023-04-06T01:28:56;100555.72;;;4.38;61.79
61906;BME280;47863;55.766;37.672;2023-04-06T01:31:22;100580.50;;;4.51;62.01
61906;BME280;47863;55.766;37.672;2023-04-06T01:33:48;100595.56;;;4.51;61.80
61906;BME280;47863;55.766;37.672;2023-04-06T01:36:13;100579.94;;;4.46;61.85
61906;BME280;47863;55.766;37.672;2023-04-06T01:38:40;100583.56;;;4.45;62.25
61906;BME280;47863;55.766;37.672;2023-04-06T01:41:07;100595.00;;;4.46;62.16
61906;BME280;47863;55.766;37.672;2023-04-06T01:43:33;100588.03;;;4.45;62.34
61906;BME280;47863;55.766;37.672;2023-04-06T01:45:58;100578.66;;;4.39;62.09
61906;BME280;47863;55.766;37.672;2023-04-06T01:48:26;100584.63;;;4.43;62.44
61906;BME280;47863;55.766;37.672;2023-04-06T01:50:52;100581.63;;;4.34;62.06
61906;BME280;47863;55.766;37.672;2023-04-06T01:53:18;100587.78;;;4.35;62.68
61906;BME280;47863;55.766;37.672;2023-04-06T01:55:43;100592.44;;;4.31;62.42
61906;BME280;47863;55.766;37.672;2023-04-06T01:58:09;100584.56;;;4.30;63.20
61906;BME280;47863;55.766;37.672;2023-04-06T02:00:34;100588.38;;;4.26;62.28
61906;BME280;47863;55.766;37.672;2023-04-06T02:03:00;100584.22;;;4.22;62.22
61906;BME280;47863;55.766;37.672;2023-04-06T02:05:26;100524.91;;;3.83;62.50
61906;BME280;47863;55.766;37.672;2023-04-06T02:07:52;100589.84;;;4.17;62.49
61906;BME280;47863;55.766;37.672;2023-04-06T02:10:18;100589.94;;;4.15;62.51
61906;BME280;47863;55.766;37.672;2023-04-06T02:12:43;100595.25;;;4.15;62.63
61906;BME280;47863;55.766;37.672;2023-04-06T02:15:09;100585.03;;;4.09;62.40
61906;BME280;47863;55.766;37.672;2023-04-06T02:17:35;100571.94;;;3.93;62.33
61906;BME280;47863;55.766;37.672;2023-04-06T02:20:00;100544.16;;;3.72;62.78
61906;BME280;47863;55.766;37.672;2023-04-06T02:22:26;100602.75;;;4.09;62.62
61906;BME280;47863;55.766;37.672;2023-04-06T02:24:51;100600.94;;;4.09;62.56
61906;BME280;47863;55.766;37.672;2023-04-06T02:27:17;100607.84;;;4.12;61.95
61906;BME280;47863;55.766;37.672;2023-04-06T02:29:43;100610.59;;;4.10;62.40
61906;BME280;47863;55.766;37.672;2023-04-06T02:32:08;100602.75;;;4.09;62.27
61906;BME280;47863;55.766;37.672;2023-04-06T02:34:33;100585.09;;;3.95;62.28
61906;BME280;47863;55.766;37.672;2023-04-06T02:36:59;100611.66;;;4.08;62.45
61906;BME280;47863;55.766;37.672;2023-04-06T02:39:25;100613.38;;;4.09;61.94
61906;BME280;47863;55.766;37.672;2023-04-06T02:41:50;100612.31;;;4.11;62.13
61906;BME280;47863;55.766;37.672;2023-04-06T02:44:16;100622.50;;;4.17;62.30
61906;BME280;47863;55.766;37.672;2023-04-06T02:46:41;100609.34;;;4.16;62.34
61906;BME280;47863;55.766;37.672;2023-04-06T02:49:07;100617.78;;;4.23;62.21
61906;BME280;47863;55.766;37.672;2023-04-06T02:51:33;100586.47;;;4.01;62.58
61906;BME280;47863;55.766;37.672;2023-04-06T02:53:59;100620.59;;;4.20;62.02
61906;BME280;47863;55.766;37.672;2023-04-06T02:56:24;100618.16;;;4.16;61.99
61906;BME280;47863;55.766;37.672;2023-04-06T02:58:50;100628.66;;;4.18;62.24
61906;BME280;47863;55.766;37.672;2023-04-06T03:01:15;100595.50;;;3.98;61.92
61906;BME280;47863;55.766;37.672;2023-04-06T03:03:41;100629.31;;;4.22;62.42
61906;BME280;47863;55.766;37.672;2023-04-06T03:06:07;100591.16;;;3.97;62.34
61906;BME280;47863;55.766;37.672;2023-04-06T03:08:32;100630.81;;;4.26;62.55
61906;BME280;47863;55.766;37.672;2023-04-06T03:10:58;100629.75;;;4.28;62.17
61906;BME280;47863;55.766;37.672;2023-04-06T03:13:23;100641.03;;;4.32;62.51
61906;BME280;47863;55.766;37.672;2023-04-06T03:15:49;100641.78;;;4.34;62.54
61906;BME280;47863;55.766;37.672;2023-04-06T03:18:15;100632.88;;;4.35;62.97
61906;BME280;47863;55.766;37.672;2023-04-06T03:20:40;100625.94;;;4.32;62.64
61906;BME280;47863;55.766;37.672;2023-04-06T03:23:06;100634.72;;;4.47;62.63
61906;BME280;47863;55.766;37.672;2023-04-06T03:25:31;100639.84;;;4.50;62.58
61906;BME280;47863;55.766;37.672;2023-04-06T03:27:57;100643.22;;;4.52;62.40
61906;BME280;47863;55.766;37.672;2023-04-06T03:30:22;100623.03;;;4.50;62.80
61906;BME280;47863;55.766;37.672;2023-04-06T03:32:48;100658.13;;;4.68;62.52
61906;BME280;47863;55.766;37.672;2023-04-06T03:35:14;100663.22;;;4.71;62.31
61906;BME280;47863;55.766;37.672;2023-04-06T03:37:39;100632.00;;;4.62;63.03
61906;BME280;47863;55.766;37.672;2023-04-06T03:40:05;100649.34;;;4.80;62.50
61906;BME280;47863;55.766;37.672;2023-04-06T03:42:31;100623.94;;;4.63;62.63
61906;BME280;47863;55.766;37.672;2023-04-06T03:44:58;100656.69;;;4.89;62.77
61906;BME280;47863;55.766;37.672;2023-04-06T03:47:24;100623.97;;;4.76;62.60
61906;BME280;47863;55.766;37.672;2023-04-06T03:49:50;100656.63;;;5.04;62.73
61906;BME280;47863;55.766;37.672;2023-04-06T03:52:15;100655.22;;;5.11;62.55
61906;BME280;47863;55.766;37.672;2023-04-06T03:54:41;100654.72;;;5.19;62.95
61906;BME280;47863;55.766;37.672;2023-04-06T03:57:06;100658.00;;;5.22;63.20
61906;BME280;47863;55.766;37.672;2023-04-06T03:59:32;100643.84;;;5.09;62.71
61906;BME280;47863;55.766;37.672;2023-04-06T04:01:57;100664.81;;;5.26;63.06
61906;BME280;47863;55.766;37.672;2023-04-06T04:04:23;100666.38;;;5.29;62.83
61906;BME280;47863;55.766;37.672;2023-04-06T04:06:48;100666.94;;;5.34;63.29
61906;BME280;47863;55.766;37.672;2023-04-06T04:09:14;100672.66;;;5.41;62.71
61906;BME280;47863;55.766;37.672;2023-04-06T04:11:40;100675.88;;;5.46;62.86
61906;BME280;47863;55.766;37.672;2023-04-06T04:14:05;100669.19;;;5.53;63.64
61906;BME280;47863;55.766;37.672;2023-04-06T04:16:31;100664.56;;;5.68;63.05
61906;BME280;47863;55.766;37.672;2023-04-06T04:18:57;100681.34;;;5.94;63.22
61906;BME280;47863;55.766;37.672;2023-04-06T04:21:24;100665.16;;;6.10;62.67
61906;BME280;47863;55.766;37.672;2023-04-06T04:23:51;100673.50;;;6.53;62.25
61906;BME280;47863;55.766;37.672;2023-04-06T04:26:18;100658.13;;;6.81;61.86
61906;BME280;47863;55.766;37.672;2023-04-06T04:28:43;100664.78;;;7.22;61.22
61906;BME280;47863;55.766;37.672;2023-04-06T04:31:09;100666.38;;;7.36;60.93
61906;BME280;47863;55.766;37.672;2023-04-06T04:33:34;100660.03;;;7.14;61.49
61906;BME280;47863;55.766;37.672;2023-04-06T04:36:00;100653.59;;;6.94;61.80
61906;BME280;47863;55.766;37.672;2023-04-06T04:38:25;100647.84;;;6.77;62.47
61906;BME280;47863;55.766;37.672;2023-04-06T04:40:51;100673.16;;;6.82;62.43
61906;BME280;47863;55.766;37.672;2023-04-06T04:43:17;100664.03;;;6.98;62.48
61906;BME280;47863;55.766;37.672;2023-04-06T04:45:42;100688.69;;;7.35;61.92
61906;BME280;47863;55.766;37.672;2023-04-06T04:48:08;100665.81;;;7.55;61.57
61906;BME280;47863;55.766;37.672;2023-04-06T04:50:34;100670.41;;;7.87;61.51
61906;BME280;47863;55.766;37.672;2023-04-06T04:52:59;100685.88;;;8.27;61.33
61906;BME280;47863;55.766;37.672;2023-04-06T04:55:25;100687.56;;;8.39;61.18
61906;BME280;47863;55.766;37.672;2023-04-06T04:57:51;100675.16;;;8.61;61.13
61906;BME280;47863;55.766;37.672;2023-04-06T05:00:16;100665.56;;;8.90;60.63
61906;BME280;47863;55.766;37.672;2023-04-06T05:02:42;100639.03;;;9.20;59.66
61906;BME280;47863;55.766;37.672;2023-04-06T05:05:08;100658.47;;;9.83;58.92
61906;BME280;47863;55.766;37.672;2023-04-06T05:07:34;100675.03;;;10.48;57.98
61906;BME280;47863;55.766;37.672;2023-04-06T05:10:00;100661.94;;;11.04;57.63
61906;BME280;47863;55.766;37.672;2023-04-06T05:12:26;100666.91;;;11.56;57.08
61906;BME280;47863;55.766;37.672;2023-04-06T05:14:53;100673.22;;;12.12;56.30
61906;BME280;47863;55.766;37.672;2023-04-06T05:17:19;100691.09;;;12.66;55.91
61906;BME280;47863;55.766;37.672;2023-04-06T05:19:45;100660.00;;;13.00;55.22
61906;BME280;47863;55.766;37.672;2023-04-06T05:22:10;100678.72;;;13.54;54.98
61906;BME280;47863;55.766;37.672;2023-04-06T05:24:36;100657.41;;;13.95;54.50
61906;BME280;47863;55.766;37.672;2023-04-06T05:27:02;100669.28;;;14.77;54.38
61906;BME280;47863;55.766;37.672;2023-04-06T05:29:28;100678.19;;;15.43;52.92
61906;BME280;47863;55.766;37.672;2023-04-06T05:31:54;100681.88;;;15.75;51.84
61906;BME280;47863;55.766;37.672;2023-04-06T05:34:20;100661.72;;;15.94;51.62
61906;BME280;47863;55.766;37.672;2023-04-06T05:36:45;100691.94;;;16.37;51.40
61906;BME280;47863;55.766;37.672;2023-04-06T05:39:11;100689.75;;;16.64;51.66
61906;BME280;47863;55.766;37.672;2023-04-06T05:41:37;100652.59;;;16.58;50.17
61906;BME280;47863;55.766;37.672;2023-04-06T05:44:03;100681.78;;;16.94;50.29
61906;BME280;47863;55.766;37.672;2023-04-06T05:46:28;100694.63;;;17.38;49.73
61906;BME280;47863;55.766;37.672;2023-04-06T05:48:54;100677.16;;;17.55;49.05
61906;BME280;47863;55.766;37.672;2023-04-06T05:51:20;100666.63;;;17.60;48.39
61906;BME280;47863;55.766;37.672;2023-04-06T05:53:46;100664.72;;;17.84;48.52
61906;BME280;47863;55.766;37.672;2023-04-06T05:56:11;100678.53;;;18.19;48.15
61906;BME280;47863;55.766;37.672;2023-04-06T05:58:37;100682.78;;;18.43;48.06
61906;BME280;47863;55.766;37.672;2023-04-06T06:01:03;100672.72;;;18.58;47.08
61906;BME280;47863;55.766;37.672;2023-04-06T06:03:30;100680.00;;;18.58;47.45
61906;BME280;47863;55.766;37.672;2023-04-06T06:06:00;100675.50;;;18.65;46.72
61906;BME280;47863;55.766;37.672;2023-04-06T06:08:26;100677.75;;;18.98;46.12
61906;BME280;47863;55.766;37.672;2023-04-06T06:10:52;100681.88;;;19.44;45.81
61906;BME280;47863;55.766;37.672;2023-04-06T06:13:17;100673.72;;;20.07;44.82
61906;BME280;47863;55.766;37.672;2023-04-06T06:15:43;100683.38;;;20.71;44.43
61906;BME280;47863;55.766;37.672;2023-04-06T06:18:09;100657.47;;;21.15;42.78
61906;BME280;47863;55.766;37.672;2023-04-06T06:20:34;100679.22;;;21.82;41.76
61906;BME280;47863;55.766;37.672;2023-04-06T06:23:00;100675.69;;;22.40;41.15
61906;BME280;47863;55.766;37.672;2023-04-06T06:25:25;100667.22;;;22.86;41.15
61906;BME280;47863;55.766;37.672;2023-04-06T06:27:51;100628.47;;;23.03;40.00
61906;BME280;47863;55.766;37.672;2023-04-06T06:30:17;100673.16;;;23.84;40.02
61906;BME280;47863;55.766;37.672;2023-04-06T06:32:42;100671.97;;;24.47;39.20
61906;BME280;47863;55.766;37.672;2023-04-06T06:35:08;100671.97;;;25.31;37.85
61906;BME280;47863;55.766;37.672;2023-04-06T06:37:34;100678.63;;;25.82;37.00
61906;BME280;47863;55.766;37.672;2023-04-06T06:39:59;100671.44;;;26.28;36.64
61906;BME280;47863;55.766;37.672;2023-04-06T06:42:25;100670.59;;;26.57;35.50
61906;BME280;47863;55.766;37.672;2023-04-06T06:44:51;100658.13;;;26.37;34.14
61906;BME280;47863;55.766;37.672;2023-04-06T06:47:17;100673.09;;;26.18;35.44
61906;BME280;47863;55.766;37.672;2023-04-06T06:49:42;100669.44;;;26.00;34.79
61906;BME280;47863;55.766;37.672;2023-04-06T06:52:08;100677.44;;;26.02;35.07
61906;BME280;47863;55.766;37.672;2023-04-06T06:54:33;100665.84;;;26.11;34.09
61906;BME280;47863;55.766;37.672;2023-04-06T06:56:59;100671.91;;;26.66;33.50
61906;BME280;47863;55.766;37.672;2023-04-06T06:59:25;100654.59;;;27.16;32.73
61906;BME280;47863;55.766;37.672;2023-04-06T07:01:51;100667.72;;;27.82;32.05
61906;BME280;47863;55.766;37.672;2023-04-06T07:04:17;100648.31;;;28.11;30.79
61906;BME280;47863;55.766;37.672;2023-04-06T07:06:42;100653.25;;;28.58;30.63
61906;BME280;47863;55.766;37.672;2023-04-06T07:09:08;100654.56;;;28.77;28.87
61906;BME280;47863;55.766;37.672;2023-04-06T07:11:33;100675.22;;;29.39;28.57
61906;BME280;47863;55.766;37.672;2023-04-06T07:13:59;100671.25;;;30.15;28.09
61906;BME280;47863;55.766;37.672;2023-04-06T07:16:24;100664.81;;;30.83;27.31
61906;BME280;47863;55.766;37.672;2023-04-06T07:18:50;100664.81;;;31.60;27.38
61906;BME280;47863;55.766;37.672;2023-04-06T07:21:16;100672.28;;;32.40;26.28
61906;BME280;47863;55.766;37.672;2023-04-06T07:23:41;100671.31;;;33.05;25.44
61906;BME280;47863;55.766;37.672;2023-04-06T07:26:07;100664.00;;;33.48;24.22
61906;BME280;47863;55.766;37.672;2023-04-06T07:28:32;100664.34;;;33.71;23.70
61906;BME280;47863;55.766;37.672;2023-04-06T07:30:58;100661.50;;;34.00;22.50
61906;BME280;47863;55.766;37.672;2023-04-06T07:33:24;100667.19;;;34.52;22.66
61906;BME280;47863;55.766;37.672;2023-04-06T07:35:50;100675.19;;;34.78;21.87
61906;BME280;47863;55.766;37.672;2023-04-06T07:38:16;100671.22;;;34.84;21.50
61906;BME280;47863;55.766;37.672;2023-04-06T07:40:42;100664.59;;;35.12;21.09
61906;BME280;47863;55.766;37.672;2023-04-06T07:43:07;100676.28;;;35.47;20.64
61906;BME280;47863;55.766;37.672;2023-04-06T07:45:33;100668.19;;;35.92;20.64
61906;BME280;47863;55.766;37.672;2023-04-06T07:47:58;100655.06;;;36.21;19.81
61906;BME280;47863;55.766;37.672;2023-04-06T07:50:24;100666.22;;;36.21;19.61
61906;BME280;47863;55.766;37.672;2023-04-06T07:52:50;100667.09;;;36.44;19.78
61906;BME280;47863;55.766;37.672;2023-04-06T07:55:15;100652.06;;;36.67;19.38
61906;BME280;47863;55.766;37.672;2023-04-06T07:57:41;100661.78;;;37.15;19.10
61906;BME280;47863;55.766;37.672;2023-04-06T08:00:07;100673.06;;;37.33;18.53
61906;BME280;47863;55.766;37.672;2023-04-06T08:02:34;100668.22;;;37.56;18.76
61906;BME280;47863;55.766;37.672;2023-04-06T08:05:00;100671.47;;;37.72;17.40
61906;BME280;47863;55.766;37.672;2023-04-06T08:07:26;100645.97;;;37.42;17.64
61906;BME280;47863;55.766;37.672;2023-04-06T08:09:51;100667.84;;;37.40;16.62
61906;BME280;47863;55.766;37.672;2023-04-06T08:12:17;100663.25;;;37.13;16.54
61906;BME280;47863;55.766;37.672;2023-04-06T08:14:42;100640.69;;;37.09;16.25
61906;BME280;47863;55.766;37.672;2023-04-06T08:17:08;100658.22;;;37.23;16.19
61906;BME280;47863;55.766;37.672;2023-04-06T08:19:34;100665.03;;;37.62;16.01
61906;BME280;47863;55.766;37.672;2023-04-06T08:21:59;100640.53;;;37.68;15.91
61906;BME280;47863;55.766;37.672;2023-04-06T08:24:25;100656.03;;;37.74;15.65
61906;BME280;47863;55.766;37.672;2023-04-06T08:26:50;100663.16;;;37.26;15.49
61906;BME280;47863;55.766;37.672;2023-04-06T08:29:16;100663.41;;;36.71;14.72
61906;BME280;47863;55.766;37.672;2023-04-06T08:31:42;100650.28;;;36.07;14.88
61906;BME280;47863;55.766;37.672;2023-04-06T08:34:08;100662.50;;;35.70;14.41
61906;BME280;47863;55.766;37.672;2023-04-06T08:36:33;100656.81;;;36.03;14.57
61906;BME280;47863;55.766;37.672;2023-04-06T08:39:00;100663.47;;;36.43;14.29
61906;BME280;47863;55.766;37.672;2023-04-06T08:41:27;100656.44;;;36.82;14.28
61906;BME280;47863;55.766;37.672;2023-04-06T08:43:59;100658.72;;;37.03;14.38
61906;BME280;47863;55.766;37.672;2023-04-06T08:46:25;100638.78;;;37.49;14.24
61906;BME280;47863;55.766;37.672;2023-04-06T08:49:01;100662.75;;;38.22;13.60
61906;BME280;47863;55.766;37.672;2023-04-06T08:51:28;100659.34;;;38.60;13.23
61906;BME280;47863;55.766;37.672;2023-04-06T08:53:54;100644.00;;;38.40;13.18
61906;BME280;47863;55.766;37.672;2023-04-06T08:56:24;100658.31;;;38.38;12.70
61906;BME280;47863;55.766;37.672;2023-04-06T08:58:52;100655.19;;;38.31;13.04
61906;BME280;47863;55.766;37.672;2023-04-06T09:01:20;100635.47;;;37.39;13.02
61906;BME280;47863;55.766;37.672;2023-04-06T09:03:48;100649.97;;;37.49;13.38
61906;BME280;47863;55.766;37.672;2023-04-06T09:06:15;100651.88;;;37.63;13.19
61906;BME280;47863;55.766;37.672;2023-04-06T09:08:41;100640.44;;;37.90;13.19
61906;BME280;47863;55.766;37.672;2023-04-06T09:11:07;100646.47;;;38.24;12.99
61906;BME280;47863;55.766;37.672;2023-04-06T09:13:51;100655.91;;;37.88;11.90
61906;BME280;47863;55.766;37.672;2023-04-06T09:16:18;100653.03;;;38.37;12.76
61906;BME280;47863;55.766;37.672;2023-04-06T09:18:44;100657.22;;;38.65;12.32
61906;BME280;47863;55.766;37.672;2023-04-06T09:21:10;100660.63;;;38.45;12.07
61906;BME280;47863;55.766;37.672;2023-04-06T09:23:36;100642.47;;;38.07;12.04
61906;BME280;47863;55.766;37.672;2023-04-06T09:31:07;100634.63;;;38.97;12.03
61906;BME280;47863;55.766;37.672;2023-04-06T09:33:37;100631.72;;;39.32;11.53
61906;BME280;47863;55.766;37.672;2023-04-06T09:36:04;100644.19;;;39.52;11.86
61906;BME280;47863;55.766;37.672;2023-04-06T09:38:30;100631.56;;;39.75;11.84
61906;BME280;47863;55.766;37.672;2023-04-06T09:40:55;100635.63;;;39.95;11.51
61906;BME280;47863;55.766;37.672;2023-04-06T09:43:26;100637.66;;;39.77;10.78
61906;BME280;47863;55.766;37.672;2023-04-06T09:45:52;100627.78;;;39.33;11.77
61906;BME280;47863;55.766;37.672;2023-04-06T09:48:19;100647.75;;;39.22;11.06
61906;BME280;47863;55.766;37.672;2023-04-06T09:50:48;100626.91;;;38.59;11.03
61906;BME280;47863;55.766;37.672;2023-04-06T09:53:14;100633.13;;;38.38;11.22
61906;BME280;47863;55.766;37.672;2023-04-06T09:55:43;100643.50;;;38.46;11.62
61906;BME280;47863;55.766;37.672;2023-04-06T09:58:13;100597.78;;;38.60;11.21
61906;BME280;47863;55.766;37.672;2023-04-06T10:00:48;100635.09;;;39.07;11.04
61906;BME280;47863;55.766;37.672;2023-04-06T10:05:55;100633.28;;;39.59;10.07
61906;BME280;47863;55.766;37.672;2023-04-06T10:08:24;100634.50;;;39.40;10.77
61906;BME280;47863;55.766;37.672;2023-04-06T10:10:54;100641.47;;;39.34;10.94
61906;BME280;47863;55.766;37.672;2023-04-06T10:13:20;100630.56;;;39.50;11.06
61906;BME280;47863;55.766;37.672;2023-04-06T10:15:48;100626.97;;;39.71;10.86
61906;BME280;47863;55.766;37.672;2023-04-06T10:18:14;100630.69;;;39.92;10.75
61906;BME280;47863;55.766;37.672;2023-04-06T10:23:33;100635.22;;;39.76;9.78
61906;BME280;47863;55.766;37.672;2023-04-06T10:26:00;100629.97;;;39.65;10.69
61906;BME280;47863;55.766;37.672;2023-04-06T10:28:35;100628.34;;;39.94;10.60
61906;BME280;47863;55.766;37.672;2023-04-06T10:31:04;100623.72;;;40.19;10.78
61906;BME280;47863;55.766;37.672;2023-04-06T10:33:30;100622.59;;;40.41;10.66
61906;BME280;47863;55.766;37.672;2023-04-06T10:35:56;100629.59;;;40.27;10.83
61906;BME280;47863;55.766;37.672;2023-04-06T10:38:33;100602.34;;;39.38;10.07
61906;BME280;47863;55.766;37.672;2023-04-06T10:41:06;100623.72;;;38.95;10.82
61906;BME280;47863;55.766;37.672;2023-04-06T10:43:38;100600.88;;;38.32;10.33
61906;BME280;47863;55.766;37.672;2023-04-06T10:46:06;100607.56;;;37.96;11.50
61906;BME280;47863;55.766;37.672;2023-04-06T10:48:43;100620.56;;;38.01;11.08
61906;BME280;47863;55.766;37.672;2023-04-06T10:51:15;100625.06;;;37.62;10.74
61906;BME280;47863;55.766;37.672;2023-04-06T10:53:43;100616.47;;;37.58;11.17
61906;BME280;47863;55.766;37.672;2023-04-06T10:56:10;100610.16;;;37.44;11.67
61906;BME280;47863;55.766;37.672;2023-04-06T10:58:37;100618.69;;;37.79;11.46
61906;BME280;47863;55.766;37.672;2023-04-06T11:01:03;100617.03;;;37.78;11.37
61906;BME280;47863;55.766;37.672;2023-04-06T11:03:29;100613.94;;;37.79;11.23
61906;BME280;47863;55.766;37.672;2023-04-06T11:05:55;100622.50;;;37.92;11.31
61906;BME280;47863;55.766;37.672;2023-04-06T11:08:31;100604.53;;;37.75;11.13
61906;BME280;47863;55.766;37.672;2023-04-06T11:11:11;100621.13;;;37.63;11.03
61906;BME280;47863;55.766;37.672;2023-04-06T11:13:57;100618.47;;;37.26;11.16
61906;BME280;47863;55.766;37.672;2023-04-06T11:16:27;100569.78;;;36.65;11.45
61906;BME280;47863;55.766;37.672;2023-04-06T11:21:43;100597.69;;;36.65;11.75
61906;BME280;47863;55.766;37.672;2023-04-06T11:24:15;100624.16;;;36.90;11.71
61906;BME280;47863;55.766;37.672;2023-04-06T11:26:50;100605.44;;;36.68;10.76
61906;BME280;47863;55.766;37.672;2023-04-06T11:29:19;100608.63;;;36.61;11.51
61906;BME280;47863;55.766;37.672;2023-04-06T11:31:58;100606.75;;;36.70;11.49
61906;BME280;47863;55.766;37.672;2023-04-06T11:34:25;100606.19;;;36.82;11.61
61906;BME280;47863;55.766;37.672;2023-04-06T11:36:58;100608.94;;;36.74;11.58
61906;BME280;47863;55.766;37.672;2023-04-06T11:39:26;100618.28;;;36.05;11.89
61906;BME280;47863;55.766;37.672;2023-04-06T11:42:02;100608.41;;;35.57;12.25
61906;BME280;47863;55.766;37.672;2023-04-06T11:44:43;100607.00;;;34.80;11.74
61906;BME280;47863;55.766;37.672;2023-04-06T11:47:12;100603.09;;;34.43;12.11
61906;BME280;47863;55.766;37.672;2023-04-06T11:49:47;100571.81;;;34.51;12.58
61906;BME280;47863;55.766;37.672;2023-04-06T11:52:23;100601.09;;;34.68;11.69
61906;BME280;47863;55.766;37.672;2023-04-06T11:54:51;100600.91;;;34.40;12.25
61906;BME280;47863;55.766;37.672;2023-04-06T11:57:18;100599.16;;;34.06;12.64
61906;BME280;47863;55.766;37.672;2023-04-06T11:59:44;100576.00;;;33.92;12.48
61906;BME280;47863;55.766;37.672;2023-04-06T12:02:10;100582.19;;;34.08;12.43
61906;BME280;47863;55.766;37.672;2023-04-06T12:04:36;100587.72;;;33.89;12.98
61906;BME280;47863;55.766;37.672;2023-04-06T12:07:02;100576.63;;;33.65;12.83
61906;BME280;47863;55.766;37.672;2023-04-06T12:09:28;100588.31;;;33.62;12.81
61906;BME280;47863;55.766;37.672;2023-04-06T12:11:54;100567.69;;;33.44;13.02
61906;BME280;47863;55.766;37.672;2023-04-06T12:14:21;100592.81;;;33.57;12.90
61906;BME280;47863;55.766;37.672;2023-04-06T12:16:47;100582.69;;;33.43;13.21
61906;BME280;47863;55.766;37.672;2023-04-06T12:19:13;100599.97;;;33.10;13.20
61906;BME280;47863;55.766;37.672;2023-04-06T12:21:38;100578.63;;;32.32;13.54
61906;BME280;47863;55.766;37.672;2023-04-06T12:24:04;100585.41;;;32.15;13.61
61906;BME280;47863;55.766;37.672;2023-04-06T12:26:31;100586.56;;;32.04;13.59
61906;BME280;47863;55.766;37.672;2023-04-06T12:28:57;100585.47;;;32.05;13.66
61906;BME280;47863;55.766;37.672;2023-04-06T12:31:28;100587.38;;;32.10;13.61
61906;BME280;47863;55.766;37.672;2023-04-06T12:33:53;100532.59;;;31.86;13.55
61906;BME280;47863;55.766;37.672;2023-04-06T12:36:20;100582.13;;;32.03;13.80
61906;BME280;47863;55.766;37.672;2023-04-06T12:38:50;100581.88;;;31.94;13.75
61906;BME280;47863;55.766;37.672;2023-04-06T12:41:16;100582.69;;;32.05;13.99
61906;BME280;47863;55.766;37.672;2023-04-06T12:43:42;100585.28;;;31.76;13.89
61906;BME280;47863;55.766;37.672;2023-04-06T12:46:08;100585.13;;;31.36;14.21
61906;BME280;47863;55.766;37.672;2023-04-06T12:48:34;100561.91;;;30.71;14.39
61906;BME280;47863;55.766;37.672;2023-04-06T12:51:02;100572.16;;;30.55;14.64
61906;BME280;47863;55.766;37.672;2023-04-06T12:53:28;100580.69;;;30.43;14.74